createdAt,value
2018-04-19T00:00:30.726Z,13.22
2018-04-19T00:01:30.706Z,13.29
2018-04-19T00:02:30.701Z,13.22
2018-04-19T00:03:30.687Z,13.23
2018-04-19T00:04:30.679Z,13.23
2018-04-19T00:05:30.670Z,13.26
2018-04-19T00:06:30.659Z,13.26
2018-04-19T00:07:30.654Z,13.28
2018-04-19T00:08:30.639Z,13.29
2018-04-19T00:09:30.630Z,13.17
2018-04-19T00:10:30.620Z,13.25
2018-04-19T00:11:30.609Z,13.17
2018-04-19T00:12:30.597Z,13.25
2018-04-19T00:13:30.589Z,13.20
2018-04-19T00:14:30.580Z,13.12
2018-04-19T00:15:30.564Z,13.11
2018-04-19T00:16:30.559Z,13.23
2018-04-19T00:17:30.547Z,13.25
2018-04-19T00:18:30.533Z,13.20
2018-04-19T00:19:30.524Z,13.25
2018-04-19T00:20:30.514Z,13.28
2018-04-19T00:21:30.503Z,13.30
2018-04-19T00:22:30.498Z,13.39
2018-04-19T00:23:30.482Z,13.38
2018-04-19T00:24:30.477Z,13.44
2018-04-19T00:25:30.460Z,13.45
2018-04-19T00:26:30.452Z,13.41
2018-04-19T00:27:30.440Z,13.39
2018-04-19T00:28:30.430Z,13.32
2018-04-19T00:29:30.423Z,13.42
2018-04-19T00:30:30.411Z,13.25
2018-04-19T00:31:30.409Z,13.41
2018-04-19T00:32:30.391Z,13.28
2018-04-19T00:33:30.377Z,13.29
2018-04-19T00:34:30.412Z,13.23
2018-04-19T00:35:30.359Z,13.20
2018-04-19T00:36:30.346Z,13.23
2018-04-19T00:37:30.342Z,13.12
2018-04-19T00:38:30.327Z,13.10
2018-04-19T00:39:30.316Z,13.08
2018-04-19T00:40:30.312Z,13.10
2018-04-19T00:41:30.297Z,13.08
2018-04-19T00:42:30.287Z,13.12
2018-04-19T00:43:30.282Z,13.10
2018-04-19T00:44:30.267Z,13.07
2018-04-19T00:45:30.254Z,13.05
2018-04-19T00:46:30.243Z,13.04
2018-04-19T00:47:30.235Z,13.01
2018-04-19T00:48:30.227Z,13.07
2018-04-19T00:49:30.215Z,13.00
2018-04-19T00:50:30.209Z,13.01
2018-04-19T00:51:30.199Z,13.04
2018-04-19T00:52:30.185Z,13.03
2018-04-19T00:53:30.169Z,12.89
2018-04-19T00:54:30.158Z,12.93
2018-04-19T00:55:30.152Z,12.92
2018-04-19T00:56:30.146Z,12.87
2018-04-19T00:57:30.132Z,12.92
2018-04-19T00:58:30.124Z,12.93
2018-04-19T00:59:30.112Z,12.93
2018-04-19T01:00:30.101Z,13.00
2018-04-19T01:01:30.090Z,13.00
2018-04-19T01:02:30.079Z,12.97
2018-04-19T01:03:30.064Z,13.04
2018-04-19T01:04:30.061Z,12.95
2018-04-19T01:05:30.045Z,12.85
2018-04-19T01:06:30.038Z,12.83
2018-04-19T01:07:30.028Z,12.86
2018-04-19T01:08:30.018Z,12.82
2018-04-19T01:09:30.006Z,12.77
2018-04-19T01:10:29.991Z,12.74
2018-04-19T01:11:29.987Z,12.72
2018-04-19T01:12:29.980Z,12.52
2018-04-19T01:13:29.965Z,12.72
2018-04-19T01:14:29.952Z,12.75
2018-04-19T01:15:29.944Z,12.54
2018-04-19T01:16:29.934Z,12.70
2018-04-19T01:17:29.926Z,12.57
2018-04-19T01:18:29.914Z,12.75
2018-04-19T01:19:29.904Z,12.75
2018-04-19T01:20:29.888Z,12.65
2018-04-19T01:21:29.880Z,12.72
2018-04-19T01:22:29.870Z,12.77
2018-04-19T01:23:29.862Z,12.82
2018-04-19T01:24:29.854Z,12.75
2018-04-19T01:25:29.842Z,12.82
2018-04-19T01:26:29.825Z,12.82
2018-04-19T01:27:29.823Z,12.78
2018-04-19T01:28:29.810Z,12.71
2018-04-19T01:29:29.801Z,12.82
2018-04-19T01:30:29.783Z,12.83
2018-04-19T01:31:29.783Z,12.82
2018-04-19T01:32:29.759Z,12.77
2018-04-19T01:33:29.758Z,12.82
2018-04-19T01:34:29.740Z,12.82
2018-04-19T01:35:29.736Z,12.77
2018-04-19T01:36:29.723Z,12.72
2018-04-19T01:37:29.709Z,12.74
2018-04-19T01:38:29.704Z,12.72
2018-04-19T01:39:29.690Z,12.75
2018-04-19T01:40:29.686Z,12.57
2018-04-19T01:41:29.676Z,12.65
2018-04-19T01:42:29.659Z,12.64
2018-04-19T01:43:29.651Z,12.62
2018-04-19T01:44:29.637Z,12.52
2018-04-19T01:45:29.625Z,12.49
2018-04-19T01:46:29.617Z,12.54
2018-04-19T01:47:29.613Z,12.59
2018-04-19T01:48:29.602Z,12.47
2018-04-19T01:49:29.586Z,12.53
2018-04-19T01:50:29.576Z,12.53
2018-04-19T01:51:29.566Z,12.50
2018-04-19T01:52:29.556Z,12.45
2018-04-19T01:53:29.549Z,12.41
2018-04-19T01:54:29.540Z,12.41
2018-04-19T01:55:29.518Z,12.47
2018-04-19T01:56:29.510Z,12.42
2018-04-19T01:57:29.505Z,12.45
2018-04-19T01:58:29.487Z,12.57
2018-04-19T01:59:29.477Z,12.50
2018-04-19T02:00:29.473Z,12.52
2018-04-19T02:01:29.462Z,12.53
2018-04-19T02:02:29.447Z,12.46
2018-04-19T02:03:29.435Z,12.47
2018-04-19T02:04:29.421Z,12.39
2018-04-19T02:05:29.414Z,12.32
2018-04-19T02:06:29.412Z,12.42
2018-04-19T02:07:29.392Z,12.37
2018-04-19T02:08:29.383Z,12.38
2018-04-19T02:09:29.372Z,12.38
2018-04-19T02:10:29.359Z,12.35
2018-04-19T02:11:29.346Z,12.32
2018-04-19T02:12:29.338Z,12.35
2018-04-19T02:13:29.327Z,12.38
2018-04-19T02:14:29.315Z,12.38
2018-04-19T02:15:29.304Z,12.41
2018-04-19T02:16:29.298Z,12.39
2018-04-19T02:17:29.284Z,12.41
2018-04-19T02:18:29.278Z,12.41
2018-04-19T02:19:29.266Z,12.46
2018-04-19T02:20:29.254Z,12.46
2018-04-19T02:21:29.240Z,12.46
2018-04-19T02:22:29.245Z,12.49
2018-04-19T02:23:29.220Z,12.52
2018-04-19T02:24:29.215Z,12.38
2018-04-19T02:25:29.197Z,12.41
2018-04-19T02:26:29.185Z,12.41
2018-04-19T02:27:29.179Z,12.41
2018-04-19T02:28:29.165Z,12.47
2018-04-19T02:29:29.152Z,12.46
2018-04-19T02:30:29.146Z,12.53
2018-04-19T02:31:29.138Z,12.45
2018-04-19T02:32:29.125Z,12.42
2018-04-19T02:33:29.109Z,12.42
2018-04-19T02:34:29.099Z,12.29
2018-04-19T02:35:29.089Z,12.39
2018-04-19T02:36:29.078Z,12.38
2018-04-19T02:37:29.068Z,12.46
2018-04-19T02:38:29.052Z,12.35
2018-04-19T02:39:29.043Z,12.32
2018-04-19T02:40:29.040Z,12.32
2018-04-19T02:41:29.023Z,12.27
2018-04-19T02:42:29.014Z,12.37
2018-04-19T02:43:29.004Z,12.45
2018-04-19T02:44:28.989Z,12.41
2018-04-19T02:45:28.980Z,12.42
2018-04-19T02:46:28.969Z,12.47
2018-04-19T02:47:28.955Z,12.39
2018-04-19T02:48:28.950Z,12.35
2018-04-19T02:49:28.947Z,12.38
2018-04-19T02:50:28.925Z,12.50
2018-04-19T02:51:28.913Z,12.45
2018-04-19T02:52:28.903Z,12.50
2018-04-19T02:53:28.885Z,12.52
2018-04-19T02:54:28.883Z,12.53
2018-04-19T02:55:28.878Z,12.39
2018-04-19T02:56:28.864Z,12.52
2018-04-19T02:57:28.848Z,12.45
2018-04-19T02:58:28.834Z,12.42
2018-04-19T02:59:28.828Z,12.34
2018-04-19T03:00:28.818Z,12.27
2018-04-19T03:01:28.806Z,12.32
2018-04-19T03:02:28.801Z,12.29
2018-04-19T03:03:28.785Z,12.41
2018-04-19T03:04:28.773Z,12.37
2018-04-19T03:05:28.761Z,12.31
2018-04-19T03:06:28.751Z,12.28
2018-04-19T03:07:28.737Z,12.35
2018-04-19T03:08:28.727Z,12.34
2018-04-19T03:09:28.721Z,12.37
2018-04-19T03:10:28.714Z,12.32
2018-04-19T03:11:28.700Z,12.23
2018-04-19T03:12:28.717Z,12.23
2018-04-19T03:13:28.674Z,12.24
2018-04-19T03:14:28.660Z,12.23
2018-04-19T03:15:28.655Z,12.21
2018-04-19T03:16:28.639Z,12.29
2018-04-19T03:17:28.627Z,12.19
2018-04-19T03:18:28.626Z,12.28
2018-04-19T03:19:28.611Z,12.20
2018-04-19T03:20:28.630Z,12.23
2018-04-19T03:21:28.589Z,12.20
2018-04-19T03:22:28.582Z,12.23
2018-04-19T03:23:28.568Z,12.20
2018-04-19T03:24:28.564Z,12.21
2018-04-19T03:25:28.547Z,12.28
2018-04-19T03:26:28.535Z,12.23
2018-04-19T03:27:28.525Z,12.19
2018-04-19T03:28:28.513Z,12.17
2018-04-19T03:29:28.495Z,12.21
2018-04-19T03:30:28.492Z,12.17
2018-04-19T03:31:28.481Z,12.17
2018-04-19T03:32:28.465Z,12.16
2018-04-19T03:33:28.460Z,12.16
2018-04-19T03:34:28.442Z,12.14
2018-04-19T03:35:28.441Z,12.19
2018-04-19T03:36:28.422Z,12.12
2018-04-19T03:37:28.414Z,12.04
2018-04-19T03:38:28.398Z,12.05
2018-04-19T03:39:28.388Z,12.09
2018-04-19T03:40:28.382Z,12.07
2018-04-19T03:41:28.371Z,12.05
2018-04-19T03:42:28.357Z,11.96
2018-04-19T03:43:28.352Z,11.99
2018-04-19T03:44:28.336Z,12.09
2018-04-19T03:45:28.328Z,11.95
2018-04-19T03:46:28.317Z,11.98
2018-04-19T03:47:28.306Z,12.04
2018-04-19T03:48:28.296Z,12.04
2018-04-19T03:49:28.282Z,12.04
2018-04-19T03:50:28.267Z,12.05
2018-04-19T03:51:28.259Z,12.05
2018-04-19T03:52:28.245Z,12.12
2018-04-19T03:53:28.236Z,12.07
2018-04-19T03:54:28.225Z,12.12
2018-04-19T03:55:28.213Z,12.14
2018-04-19T03:56:28.205Z,11.99
2018-04-19T03:57:28.187Z,12.09
2018-04-19T03:58:28.180Z,12.07
2018-04-19T03:59:28.172Z,12.07
2018-04-19T04:00:28.160Z,12.16
2018-04-19T04:01:28.144Z,12.17
2018-04-19T04:02:28.140Z,12.17
2018-04-19T04:03:28.129Z,12.07
2018-04-19T04:04:28.121Z,12.13
2018-04-19T04:05:28.108Z,12.14
2018-04-19T04:06:28.088Z,12.17
2018-04-19T04:07:28.081Z,12.09
2018-04-19T04:08:28.073Z,12.12
2018-04-19T04:09:28.062Z,12.12
2018-04-19T04:10:28.053Z,12.14
2018-04-19T04:11:28.038Z,12.13
2018-04-19T04:12:28.027Z,12.14
2018-04-19T04:13:28.014Z,12.14
2018-04-19T04:14:28.003Z,12.19
2018-04-19T04:15:27.996Z,12.23
2018-04-19T04:16:27.986Z,12.19
2018-04-19T04:17:27.968Z,12.24
2018-04-19T04:18:27.958Z,12.21
2018-04-19T04:19:27.945Z,12.23
2018-04-19T04:20:27.940Z,12.23
2018-04-19T04:21:27.928Z,12.28
2018-04-19T04:22:27.917Z,12.28
2018-04-19T04:23:27.909Z,12.32
2018-04-19T04:24:27.892Z,12.34
2018-04-19T04:25:27.883Z,12.32
2018-04-19T04:26:27.875Z,12.37
2018-04-19T04:27:27.865Z,12.34
2018-04-19T04:28:27.852Z,12.37
2018-04-19T04:29:27.837Z,12.32
2018-04-19T04:30:27.829Z,12.34
2018-04-19T04:31:27.816Z,12.21
2018-04-19T04:32:27.802Z,12.28
2018-04-19T04:33:27.794Z,12.27
2018-04-19T04:34:27.781Z,12.23
2018-04-19T04:35:27.770Z,12.16
2018-04-19T04:36:27.766Z,12.17
2018-04-19T04:37:27.797Z,12.13
2018-04-19T04:38:27.743Z,12.19
2018-04-19T04:39:27.730Z,12.14
2018-04-19T04:40:27.719Z,12.10
2018-04-19T04:41:27.700Z,12.09
2018-04-19T04:42:27.695Z,12.05
2018-04-19T04:43:27.683Z,12.05
2018-04-19T04:44:27.672Z,12.02
2018-04-19T04:45:27.661Z,12.07
2018-04-19T04:46:27.650Z,11.98
2018-04-19T04:47:27.640Z,11.91
2018-04-19T04:48:27.631Z,11.91
2018-04-19T04:49:27.619Z,11.95
2018-04-19T04:50:27.604Z,11.90
2018-04-19T04:51:27.590Z,11.98
2018-04-19T04:52:27.582Z,11.98
2018-04-19T04:53:27.576Z,11.94
2018-04-19T04:54:27.563Z,12.01
2018-04-19T04:55:27.553Z,12.02
2018-04-19T04:56:27.539Z,11.98
2018-04-19T04:57:27.529Z,11.99
2018-04-19T04:58:27.516Z,11.94
2018-04-19T04:59:27.505Z,11.90
2018-04-19T05:00:27.489Z,11.90
2018-04-19T05:01:27.483Z,11.88
2018-04-19T05:02:27.477Z,11.79
2018-04-19T05:03:27.460Z,11.88
2018-04-19T05:04:27.451Z,11.86
2018-04-19T05:05:27.438Z,11.88
2018-04-19T05:06:27.427Z,11.91
2018-04-19T05:07:27.412Z,11.86
2018-04-19T05:08:27.401Z,11.88
2018-04-19T05:09:27.394Z,11.94
2018-04-19T05:10:27.384Z,11.95
2018-04-19T05:11:27.370Z,11.90
2018-04-19T05:12:27.366Z,11.91
2018-04-19T05:13:27.351Z,11.98
2018-04-19T05:14:27.387Z,11.99
2018-04-19T05:15:27.321Z,11.98
2018-04-19T05:16:27.315Z,12.13
2018-04-19T05:17:27.301Z,12.19
2018-04-19T05:18:27.302Z,12.23
2018-04-19T05:19:27.286Z,12.21
2018-04-19T05:20:27.298Z,12.34
2018-04-19T05:21:27.262Z,12.34
2018-04-19T05:22:27.254Z,12.45
2018-04-19T05:23:27.233Z,12.53
2018-04-19T05:24:27.222Z,12.49
2018-04-19T05:25:27.213Z,12.60
2018-04-19T05:26:27.200Z,12.65
2018-04-19T05:27:27.191Z,12.64
2018-04-19T05:28:27.177Z,12.62
2018-04-19T05:29:27.176Z,12.60
2018-04-19T05:30:27.160Z,12.62
2018-04-19T05:31:27.143Z,12.62
2018-04-19T05:32:27.136Z,12.49
2018-04-19T05:33:27.121Z,12.53
2018-04-19T05:34:27.115Z,12.52
2018-04-19T05:35:27.104Z,12.41
2018-04-19T05:36:27.092Z,12.37
2018-04-19T05:37:27.078Z,12.37
2018-04-19T05:38:27.074Z,12.34
2018-04-19T05:39:27.060Z,12.32
2018-04-19T05:40:27.050Z,12.32
2018-04-19T05:41:27.037Z,12.19
2018-04-19T05:42:27.038Z,12.28
2018-04-19T05:43:27.011Z,12.20
2018-04-19T05:44:27.011Z,12.20
2018-04-19T05:45:26.991Z,12.23
2018-04-19T05:46:26.984Z,12.21
2018-04-19T05:47:26.974Z,12.27
2018-04-19T05:48:26.963Z,12.27
2018-04-19T05:49:26.948Z,12.23
2018-04-19T05:50:26.931Z,12.28
2018-04-19T05:51:26.925Z,12.29
2018-04-19T05:52:26.917Z,12.37
2018-04-19T05:53:26.905Z,12.35
2018-04-19T05:54:26.901Z,12.32
2018-04-19T05:55:26.888Z,12.32
2018-04-19T05:56:26.870Z,12.32
2018-04-19T05:57:26.861Z,12.31
2018-04-19T05:58:26.848Z,12.37
2018-04-19T05:59:26.839Z,12.41
2018-04-19T06:00:26.825Z,12.41
2018-04-19T06:01:26.814Z,12.32
2018-04-19T06:02:26.798Z,12.39
2018-04-19T06:03:26.796Z,12.38
2018-04-19T06:04:26.786Z,12.41
2018-04-19T06:05:26.772Z,12.41
2018-04-19T06:06:26.762Z,12.49
2018-04-19T06:07:26.746Z,12.41
2018-04-19T06:08:26.737Z,12.46
2018-04-19T06:09:26.725Z,12.52
2018-04-19T06:10:26.715Z,12.46
2018-04-19T06:11:26.709Z,12.53
2018-04-19T06:12:26.693Z,12.46
2018-04-19T06:13:26.678Z,12.49
2018-04-19T06:14:26.672Z,12.49
2018-04-19T06:15:26.658Z,12.42
2018-04-19T06:16:26.650Z,12.41
2018-04-19T06:17:26.640Z,12.50
2018-04-19T06:18:26.624Z,12.46
2018-04-19T06:19:26.627Z,12.49
2018-04-19T06:20:26.607Z,12.41
2018-04-19T06:21:26.603Z,12.41
2018-04-19T06:22:26.585Z,12.47
2018-04-19T06:23:26.575Z,12.42
2018-04-19T06:24:26.563Z,12.53
2018-04-19T06:25:26.554Z,12.47
2018-04-19T06:26:26.543Z,12.46
2018-04-19T06:27:26.539Z,12.45
2018-04-19T06:28:26.521Z,12.71
2018-04-19T06:29:26.508Z,12.83
2018-04-19T06:30:26.512Z,12.87
2018-04-19T06:31:26.487Z,13.00
2018-04-19T06:32:26.481Z,13.10
2018-04-19T06:33:26.467Z,13.15
2018-04-19T06:34:26.455Z,13.25
2018-04-19T06:35:26.450Z,13.36
2018-04-19T06:36:26.430Z,13.54
2018-04-19T06:37:26.426Z,13.69
2018-04-19T06:38:26.420Z,13.75
2018-04-19T06:39:26.406Z,13.85
2018-04-19T06:40:26.390Z,13.96
2018-04-19T06:41:26.383Z,14.00
2018-04-19T06:42:26.372Z,14.04
2018-04-19T06:43:26.360Z,14.17
2018-04-19T06:44:26.353Z,14.33
2018-04-19T06:45:26.342Z,14.40
2018-04-19T06:46:26.325Z,14.43
2018-04-19T06:47:26.325Z,14.50
2018-04-19T06:48:26.311Z,14.61
2018-04-19T06:49:26.302Z,14.61
2018-04-19T06:50:26.288Z,14.64
2018-04-19T06:51:26.277Z,14.70
2018-04-19T06:52:26.267Z,14.78
2018-04-19T06:53:26.257Z,14.91
2018-04-19T06:54:26.248Z,15.07
2018-04-19T06:55:26.244Z,15.03
2018-04-19T06:56:26.228Z,15.03
2018-04-19T06:57:26.217Z,15.13
2018-04-19T06:58:26.204Z,15.31
2018-04-19T06:59:26.200Z,15.29
2018-04-19T07:00:26.186Z,15.34
2018-04-19T07:01:26.182Z,15.46
2018-04-19T07:02:26.173Z,15.38
2018-04-19T07:03:26.160Z,15.50
2018-04-19T07:04:26.149Z,15.51
2018-04-19T07:05:26.145Z,15.59
2018-04-19T07:06:26.181Z,15.65
2018-04-19T07:07:26.124Z,15.62
2018-04-19T07:08:26.160Z,15.80
2018-04-19T07:09:26.101Z,15.82
2018-04-19T07:10:26.088Z,15.94
2018-04-19T07:11:26.084Z,15.94
2018-04-19T07:12:26.077Z,16.08
2018-04-19T07:13:26.065Z,16.09
2018-04-19T07:14:26.056Z,16.11
2018-04-19T07:15:26.051Z,16.28
2018-04-19T07:16:26.038Z,16.28
2018-04-19T07:17:26.024Z,16.43
2018-04-19T07:18:26.023Z,16.46
2018-04-19T07:19:26.010Z,16.56
2018-04-19T07:20:26.007Z,16.63
2018-04-19T07:21:25.994Z,16.76
2018-04-19T07:22:25.982Z,16.82
2018-04-19T07:23:25.974Z,16.86
2018-04-19T07:24:25.969Z,16.98
2018-04-19T07:25:25.956Z,17.03
2018-04-19T07:26:25.950Z,17.07
2018-04-19T07:27:25.944Z,17.14
2018-04-19T07:28:25.934Z,17.22
2018-04-19T07:29:25.921Z,17.30
2018-04-19T07:30:25.917Z,17.26
2018-04-19T07:31:25.906Z,17.43
2018-04-19T07:32:25.894Z,17.40
2018-04-19T07:33:25.892Z,17.51
2018-04-19T07:34:25.882Z,17.63
2018-04-19T07:35:25.869Z,17.66
2018-04-19T07:36:25.860Z,17.72
2018-04-19T07:37:25.858Z,17.78
2018-04-19T07:38:25.848Z,17.79
2018-04-19T07:39:25.841Z,17.86
2018-04-19T07:40:25.829Z,17.93
2018-04-19T07:41:25.821Z,18.02
2018-04-19T07:42:25.815Z,17.97
2018-04-19T07:43:25.804Z,18.07
2018-04-19T07:44:25.803Z,18.08
2018-04-19T07:45:25.792Z,18.10
2018-04-19T07:46:25.783Z,18.14
2018-04-19T07:47:25.774Z,18.15
2018-04-19T07:48:25.766Z,18.18
2018-04-19T07:49:25.754Z,18.15
2018-04-19T07:50:25.750Z,18.21
2018-04-19T07:51:25.745Z,18.30
2018-04-19T07:52:25.731Z,18.30
2018-04-19T07:53:25.723Z,18.37
2018-04-19T07:54:25.715Z,18.42
2018-04-19T07:55:25.709Z,18.39
2018-04-19T07:56:25.702Z,18.52
2018-04-19T07:57:25.698Z,18.62
2018-04-19T07:58:25.695Z,18.58
2018-04-19T07:59:25.681Z,18.70
2018-04-19T08:00:25.677Z,18.76
2018-04-19T08:01:25.670Z,18.81
2018-04-19T08:02:25.663Z,18.87
2018-04-19T08:03:25.652Z,18.90
2018-04-19T08:04:25.648Z,18.92
2018-04-19T08:05:25.678Z,18.88
2018-04-19T08:06:25.630Z,18.90
2018-04-19T08:07:25.617Z,18.91
2018-04-19T08:08:25.623Z,18.99
2018-04-19T08:09:25.617Z,18.88
2018-04-19T08:10:25.600Z,18.87
2018-04-19T08:11:25.640Z,18.88
2018-04-19T08:12:25.588Z,18.87
2018-04-19T08:13:25.585Z,18.94
2018-04-19T08:14:25.601Z,18.92
2018-04-19T08:15:25.563Z,18.90
2018-04-19T08:16:25.562Z,18.88
2018-04-19T08:17:25.550Z,18.90
2018-04-19T08:18:25.538Z,18.84
2018-04-19T08:19:25.536Z,18.87
2018-04-19T08:20:25.525Z,18.82
2018-04-19T08:21:25.518Z,18.80
2018-04-19T08:22:25.519Z,18.80
2018-04-19T08:23:25.509Z,18.87
2018-04-19T08:24:25.519Z,18.91
2018-04-19T08:25:25.492Z,18.80
2018-04-19T08:26:25.497Z,18.92
2018-04-19T08:27:25.483Z,18.90
2018-04-19T08:28:25.468Z,18.87
2018-04-19T08:29:25.467Z,18.91
2018-04-19T08:30:25.460Z,18.90
2018-04-19T08:31:25.448Z,18.92
2018-04-19T08:32:25.446Z,18.90
2018-04-19T08:33:25.440Z,18.88
2018-04-19T08:34:25.436Z,18.95
2018-04-19T08:35:25.425Z,18.95
2018-04-19T08:36:25.415Z,19.02
2018-04-19T08:37:25.415Z,19.04
2018-04-19T08:38:25.402Z,19.16
2018-04-19T08:39:25.394Z,19.16
2018-04-19T08:40:25.393Z,19.36
2018-04-19T08:41:25.381Z,19.44
2018-04-19T08:42:25.370Z,19.47
2018-04-19T08:43:25.363Z,19.68
2018-04-19T08:44:25.358Z,19.76
2018-04-19T08:45:25.346Z,19.84
2018-04-19T08:46:25.347Z,19.95
2018-04-19T08:47:25.335Z,19.91
2018-04-19T08:48:25.332Z,19.94
2018-04-19T08:49:25.327Z,19.96
2018-04-19T08:50:25.312Z,19.92
2018-04-19T08:51:25.315Z,19.88
2018-04-19T08:52:25.309Z,19.99
2018-04-19T08:53:25.294Z,20.05
2018-04-19T08:54:25.287Z,20.14
2018-04-19T08:55:25.284Z,20.14
2018-04-19T08:56:25.318Z,20.11
2018-04-19T08:57:25.269Z,20.20
2018-04-19T08:58:25.263Z,20.17
2018-04-19T08:59:25.253Z,20.11
2018-04-19T09:00:25.250Z,20.28
2018-04-19T09:01:25.240Z,20.26
2018-04-19T09:02:25.237Z,20.28
2018-04-19T09:03:25.225Z,20.32
2018-04-19T09:04:25.226Z,20.26
2018-04-19T09:05:25.209Z,20.32
2018-04-19T09:06:25.210Z,20.39
2018-04-19T09:07:25.205Z,20.42
2018-04-19T09:08:25.194Z,20.51
2018-04-19T09:09:25.192Z,20.58
2018-04-19T09:10:25.186Z,20.73
2018-04-19T09:11:25.174Z,20.74
2018-04-19T09:12:25.171Z,20.84
2018-04-19T09:13:25.167Z,20.87
2018-04-19T09:14:25.156Z,20.85
2018-04-19T09:15:25.155Z,20.82
2018-04-19T09:16:25.148Z,20.84
2018-04-19T09:17:25.140Z,20.88
2018-04-19T09:18:25.137Z,20.97
2018-04-19T09:19:25.132Z,20.94
2018-04-19T09:20:25.121Z,20.98
2018-04-19T09:21:25.115Z,20.99
2018-04-19T09:22:25.111Z,21.14
2018-04-19T09:23:25.103Z,21.12
2018-04-19T09:24:25.092Z,21.12
2018-04-19T09:25:25.091Z,21.25
2018-04-19T09:26:25.079Z,21.24
2018-04-19T09:27:25.081Z,21.31
2018-04-19T09:28:25.071Z,21.43
2018-04-19T09:29:25.071Z,21.40
2018-04-19T09:30:25.059Z,21.43
2018-04-19T09:31:25.053Z,21.44
2018-04-19T09:32:25.053Z,21.44
2018-04-19T09:33:25.043Z,21.52
2018-04-19T09:34:25.042Z,21.53
2018-04-19T09:35:25.034Z,21.52
2018-04-19T09:36:25.024Z,21.53
2018-04-19T09:37:25.016Z,21.59
2018-04-19T09:38:25.013Z,21.52
2018-04-19T09:39:25.014Z,21.49
2018-04-19T09:40:25.002Z,21.58
2018-04-19T09:41:24.996Z,21.75
2018-04-19T09:42:24.993Z,21.86
2018-04-19T09:43:24.987Z,21.92
2018-04-19T09:44:24.977Z,21.98
2018-04-19T09:45:24.975Z,21.86
2018-04-19T09:46:24.966Z,21.91
2018-04-19T09:47:24.967Z,22.10
2018-04-19T09:48:24.959Z,22.07
2018-04-19T09:49:24.954Z,22.12
2018-04-19T09:50:24.943Z,22.20
2018-04-19T09:51:24.941Z,22.22
2018-04-19T09:52:24.936Z,22.21
2018-04-19T09:53:24.937Z,22.35
2018-04-19T09:54:24.928Z,22.28
2018-04-19T09:55:24.915Z,22.36
2018-04-19T09:56:24.907Z,22.40
2018-04-19T09:57:24.907Z,22.40
2018-04-19T09:58:24.902Z,22.51
2018-04-19T09:59:24.900Z,22.58
2018-04-19T10:00:24.892Z,22.73
2018-04-19T10:01:24.892Z,22.57
2018-04-19T10:02:24.936Z,22.61
2018-04-19T10:03:24.884Z,22.61
2018-04-19T10:04:24.870Z,22.73
2018-04-19T10:05:24.865Z,22.68
2018-04-19T10:06:24.859Z,22.68
2018-04-19T10:07:24.857Z,22.75
2018-04-19T10:08:24.853Z,22.72
2018-04-19T10:09:24.849Z,22.77
2018-04-19T10:10:24.877Z,22.68
2018-04-19T10:11:24.836Z,22.73
2018-04-19T10:12:24.838Z,22.82
2018-04-19T10:13:24.825Z,22.65
2018-04-19T10:14:24.830Z,22.72
2018-04-19T10:15:24.824Z,22.70
2018-04-19T10:16:24.818Z,22.72
2018-04-19T10:17:24.817Z,22.68
2018-04-19T10:18:24.807Z,22.55
2018-04-19T10:19:24.799Z,22.47
2018-04-19T10:20:24.800Z,22.43
2018-04-19T10:21:24.839Z,22.54
2018-04-19T10:22:24.785Z,22.46
2018-04-19T10:23:24.779Z,22.62
2018-04-19T10:24:24.778Z,22.62
2018-04-19T10:25:24.770Z,22.72
2018-04-19T10:26:24.769Z,22.85
2018-04-19T10:27:24.817Z,22.88
2018-04-19T10:28:24.760Z,22.97
2018-04-19T10:29:24.755Z,22.91
2018-04-19T10:30:24.750Z,23.00
2018-04-19T10:31:24.740Z,22.91
2018-04-19T10:32:24.742Z,22.92
2018-04-19T10:33:24.736Z,22.98
2018-04-19T10:34:24.737Z,23.04
2018-04-19T10:35:24.726Z,23.13
2018-04-19T10:36:24.728Z,23.15
2018-04-19T10:37:24.716Z,23.16
2018-04-19T10:38:24.707Z,23.16
2018-04-19T10:39:24.719Z,23.10
2018-04-19T10:40:24.710Z,23.28
2018-04-19T10:41:24.702Z,23.13
2018-04-19T10:42:24.686Z,23.17
2018-04-19T10:43:24.689Z,23.10
2018-04-19T10:44:24.688Z,23.15
2018-04-19T10:45:24.679Z,23.15
2018-04-19T10:46:24.677Z,23.04
2018-04-19T10:47:24.675Z,23.15
2018-04-19T10:48:24.667Z,23.05
2018-04-19T10:49:24.661Z,23.20
2018-04-19T10:50:24.661Z,23.15
2018-04-19T10:51:24.652Z,23.27
2018-04-19T10:52:24.649Z,23.42
2018-04-19T10:53:24.656Z,23.33
2018-04-19T10:54:24.639Z,23.46
2018-04-19T10:55:24.630Z,23.53
2018-04-19T10:56:24.635Z,23.54
2018-04-19T10:57:24.633Z,23.39
2018-04-19T10:58:24.622Z,23.47
2018-04-19T10:59:24.614Z,23.39
2018-04-19T11:00:24.610Z,23.39
2018-04-19T11:01:24.611Z,23.28
2018-04-19T11:02:24.600Z,23.32
2018-04-19T11:03:24.609Z,23.27
2018-04-19T11:04:24.603Z,23.35
2018-04-19T11:05:24.586Z,23.25
2018-04-19T11:06:24.590Z,23.09
2018-04-19T11:07:24.585Z,23.12
2018-04-19T11:08:24.583Z,23.16
2018-04-19T11:09:24.575Z,23.00
2018-04-19T11:10:24.574Z,23.15
2018-04-19T11:11:24.565Z,23.16
2018-04-19T11:12:24.568Z,23.28
2018-04-19T11:13:24.560Z,23.35
2018-04-19T11:14:24.551Z,23.46
2018-04-19T11:15:24.551Z,23.63
2018-04-19T11:16:24.548Z,23.68
2018-04-19T11:17:24.543Z,23.70
2018-04-19T11:18:24.531Z,23.72
2018-04-19T11:19:24.544Z,23.69
2018-04-19T11:20:24.533Z,23.70
2018-04-19T11:21:24.524Z,23.85
2018-04-19T11:22:24.521Z,23.73
2018-04-19T11:23:24.521Z,23.84
2018-04-19T11:24:24.515Z,23.87
2018-04-19T11:25:24.511Z,24.00
2018-04-19T11:26:24.504Z,23.93
2018-04-19T11:27:24.517Z,24.09
2018-04-19T11:28:24.498Z,24.02
2018-04-19T11:29:24.492Z,24.10
2018-04-19T11:30:24.488Z,23.94
2018-04-19T11:31:24.488Z,23.83
2018-04-19T11:32:24.483Z,23.68
2018-04-19T11:33:24.491Z,23.43
2018-04-19T11:34:24.469Z,23.50
2018-04-19T11:35:24.467Z,23.60
2018-04-19T11:36:24.467Z,23.68
2018-04-19T11:37:24.474Z,23.69
2018-04-19T11:38:24.456Z,23.84
2018-04-19T11:39:24.451Z,23.94
2018-04-19T11:40:24.446Z,24.05
2018-04-19T11:41:24.440Z,23.97
2018-04-19T11:42:24.442Z,24.02
2018-04-19T11:43:24.437Z,23.94
2018-04-19T11:44:24.433Z,24.06
2018-04-19T11:45:24.430Z,24.15
2018-04-19T11:46:24.423Z,24.28
2018-04-19T11:47:24.423Z,24.30
2018-04-19T11:48:24.415Z,24.40
2018-04-19T11:49:24.414Z,24.45
2018-04-19T11:50:24.408Z,24.46
2018-04-19T11:51:24.412Z,24.52
2018-04-19T11:52:24.399Z,24.53
2018-04-19T11:53:24.393Z,24.46
2018-04-19T11:54:24.393Z,24.32
2018-04-19T11:55:24.392Z,24.42
2018-04-19T11:56:24.389Z,24.47
2018-04-19T11:57:24.382Z,24.42
2018-04-19T11:58:24.382Z,24.46
2018-04-19T11:59:24.380Z,24.46
2018-04-19T12:00:24.373Z,24.57
2018-04-19T12:01:24.372Z,24.78
2018-04-19T12:02:24.364Z,24.90
2018-04-19T12:03:24.363Z,24.95
2018-04-19T12:04:24.364Z,24.81
2018-04-19T12:05:24.358Z,24.80
2018-04-19T12:06:24.363Z,24.73
2018-04-19T12:07:24.352Z,24.71
2018-04-19T12:08:24.349Z,24.71
2018-04-19T12:09:24.341Z,24.69
2018-04-19T12:10:24.342Z,24.80
2018-04-19T12:11:24.337Z,24.83
2018-04-19T12:12:24.337Z,24.88
2018-04-19T12:13:24.332Z,24.88
2018-04-19T12:14:24.326Z,24.98
2018-04-19T12:15:24.321Z,25.10
2018-04-19T12:16:24.319Z,25.06
2018-04-19T12:17:24.315Z,25.15
2018-04-19T12:18:24.317Z,25.10
2018-04-19T12:19:24.314Z,25.10
2018-04-19T12:20:24.312Z,25.09
2018-04-19T12:21:24.302Z,25.09
2018-04-19T12:22:24.303Z,25.21
2018-04-19T12:23:24.297Z,25.05
2018-04-19T12:24:24.298Z,25.08
2018-04-19T12:25:24.296Z,25.00
2018-04-19T12:26:24.295Z,24.95
2018-04-19T12:27:24.284Z,25.06
2018-04-19T12:28:24.287Z,25.08
2018-04-19T12:29:24.280Z,25.08
2018-04-19T12:30:24.286Z,25.09
2018-04-19T12:31:24.279Z,25.02
2018-04-19T12:32:24.274Z,24.99
2018-04-19T12:33:24.268Z,24.87
2018-04-19T12:34:24.273Z,24.85
2018-04-19T12:35:24.270Z,24.87
2018-04-19T12:36:24.259Z,24.93
2018-04-19T12:37:24.276Z,24.99
2018-04-19T12:38:24.258Z,24.98
2018-04-19T12:39:24.257Z,25.03
2018-04-19T12:40:24.249Z,25.21
2018-04-19T12:41:24.242Z,25.21
2018-04-19T12:42:24.241Z,25.36
2018-04-19T12:43:24.241Z,25.45
2018-04-19T12:44:24.239Z,25.54
2018-04-19T12:45:24.235Z,25.52
2018-04-19T12:46:24.232Z,25.51
2018-04-19T12:47:24.231Z,25.62
2018-04-19T12:48:24.230Z,25.70
2018-04-19T12:49:24.228Z,25.83
2018-04-19T12:50:24.221Z,25.98
2018-04-19T12:51:24.223Z,25.94
2018-04-19T12:52:24.211Z,25.99